Terminal Aerodrome Forecast
Issued by NWS Cleveland, OH

Home | Current Version | Previous Version | Graphics & Text | Print | Product List | Glossary On
Versions: 1 2 3 4 5 6 7 8 9 10 11 12 13 14 15 16 17 18 19 20 21 22 23 24 25 26 27 28 29 30 31 32 33 34 35 36
000
FTUS41 KCLE 251100
TAFCLE
TAF
KCLE 251140Z 2512/2618 05005KT 5SM BR OVC010
      TEMPO 2512/2515 3SM -SN BR
     FM252100 04015KT 2SM -SN BR SCT006 OVC010
     FM260700 04015KT 3SM -SN BR OVC012
     FM261300 03015KT P6SM BKN020=

USA.gov is the U.S. government's official web portal to all federal, state and local government web resources and services.